Juan de Fuca Strait - east entrance: Past 24 Hour Conditions

 

Halibut Bank - 46146

03:00 PM PDT 16 April 2014Buoy position: 49.34N 123.72W
This table is a summary of hourly weather conditions for the past 24 hours.
Date / Time
(PDT)
Wind(knots) Wave height(m) Wave period(s) Pressure(kPa) Air tempC) Water tempC)
16 April 2014
15:00 E 18 gust 21 0.6 4.0 101.5 10 11
14:00 E 18 gust 19 0.6 4.0 101.6 10 10
13:00 E 18 gust 21 0.7 4.0 101.6 9 10
12:00 E 16 gust 19 0.6 4.0 101.6 9 10
11:00 E 16 gust 19 0.5 4.0 101.6 9 10
10:00 E 16 gust 18 0.4 3.0 101.6 9 10
9:00 E 16 gust 18 0.4 4.0 101.6 9 10
8:00 E 16 gust 18 0.4 3.0 101.6 8 10
7:00 E 14 gust 18 0.4 3.0 101.6 9 10
6:00 E 14 gust 16 0.4 3.0 101.6 8 10
5:00 E 14 gust 16 0.3 3.0 101.6 8 10
4:00 E 14 gust 16 0.3 3.0 101.6 9 10
3:00 E 12 gust 16 0.3 3.0 101.6 9 10
2:00 E 12 gust 14 0.4 3.0 101.7 9 10
1:00 E 14 gust 18 0.4 3.0 101.7 9 10
0:00 E 14 gust 18 0.2 3.0 101.7 9 10
15 April 2014
23:00 E 8 gust 10 0.2 3.0 101.8 9 10
22:00 ENE 6 gust 8 0.2 3.0 101.8 9 10
21:00 SSW 10 gust 12 0.4 3.0 101.8 10 10
20:00 SW 14 gust 18 0.3 3.0 101.8 11 10
19:00 E 14 gust 16 0.4 3.0 101.7 11 10
18:00 E 14 gust 16 0.3 3.0 101.8 11 10
17:00 E 10 gust 12 0.4 3.0 101.9 11 10
16:00 E 12 gust 16 0.4 3.0 101.9 11 10
15:00 E 14 gust 16 0.4 3.0 101.9 11 10
 
Map of Pacific - Georgia Basin marine weather areas Tsawwassen Ferry Terminal Sentry Shoal - 46131 Halibut Bank - 46146 La Perouse Bank - 46206 Discovery Island Esquimalt Harbour Kelp Reefs Malahat Race Rocks Lightstation Saturna Island Sheringham Point University of Victoria Victoria Gonzales Victoria Int'l Airport Ballenas Islands Campbell River Airport Comox Airport Entrance Island Fanny Island Nanaimo Airport Sisters Islets Estevan Point Tofino Airport Grief Point Powell River Airport Sechelt Point Atkinson Sand Heads Lightstation Vancouver Harbour Vancouver Int'l Airport West Vancouver Port Alberni Howe Sound - Pam Rocks Squamish Airport